Time;durP1;ratioP1;P1;durP2;ratioP2;P2;SDS_P1;SDS_P2;PMS_P1;PMS_P2;Temp;Humidity;BMP_temperature;BMP_pressure;BME280_temperature;BME280_humidity;BME280_pressure;Samples;Min_cycle;Max_cycle;Signal;HPM_P1;HPM_P2
2022/09/12 00:00:27;;;;;;;;;;;22.30;51.20;;;;;;476656;250;1302;-73
2022/09/12 00:02:28;;;;;;;;;;;22.30;51.20;;;;;;476536;250;1205;-73
2022/09/12 00:04:29;;;;;;;;;;;22.30;51.20;;;;;;476642;250;1211;-73
2022/09/12 00:06:31;;;;;;;;;;;22.40;51.10;;;;;;476677;250;2199;-73
2022/09/12 00:08:32;;;;;;;;;;;22.40;50.90;;;;;;476736;250;1295;-74
2022/09/12 00:10:33;;;;;;;;;;;22.40;50.70;;;;;;476616;250;1334;-73
2022/09/12 00:12:35;;;;;;;;;;;22.40;50.70;;;;;;476869;250;1261;-74
2022/09/12 00:14:36;;;;;;;;;;;22.40;50.80;;;;;;476884;250;1221;-73
2022/09/12 00:16:37;;;;;;;;;;;22.40;50.80;;;;;;476812;250;1232;-73
2022/09/12 00:18:39;;;;;;;;;;;22.30;50.80;;;;;;476675;250;1283;-73
2022/09/12 00:20:40;;;;;;;;;;;22.30;50.80;;;;;;476668;250;1223;-73
2022/09/12 00:22:41;;;;;;;;;;;22.30;50.80;;;;;;476641;250;1263;-73
2022/09/12 00:24:43;;;;;;;;;;;22.40;50.70;;;;;;476762;250;1208;-73
2022/09/12 00:26:44;;;;;;;;;;;22.40;50.60;;;;;;476644;250;2199;-73
2022/09/12 00:28:45;;;;;;;;;;;22.30;50.50;;;;;;476679;250;1246;-73
2022/09/12 00:30:47;;;;;;;;;;;22.30;50.50;;;;;;476771;250;1173;-73
2022/09/12 00:32:50;;;;;;;;;;;22.30;50.50;;;;;;476665;250;1190;-73
2022/09/12 00:34:49;;;;;;;;;;;22.30;50.40;;;;;;476528;250;1484;-73
2022/09/12 00:36:51;;;;;;;;;;;22.30;50.40;;;;;;476606;250;1240;-73
2022/09/12 00:38:53;;;;;;;;;;;22.30;50.40;;;;;;476839;250;1224;-73
2022/09/12 00:40:53;;;;;;;;;;;22.30;50.50;;;;;;476576;250;1966;-73
2022/09/12 00:42:55;;;;;;;;;;;22.40;50.40;;;;;;476708;250;1275;-73
2022/09/12 00:44:56;;;;;;;;;;;22.40;50.30;;;;;;476898;250;2202;-73
2022/09/12 00:46:57;;;;;;;;;;;22.50;50.10;;;;;;476639;250;1107;-73
2022/09/12 00:48:59;;;;;;;;;;;22.40;50.10;;;;;;476690;250;1173;-73
2022/09/12 00:51:00;;;;;;;;;;;22.40;50.20;;;;;;476696;250;1247;-73
2022/09/12 00:53:01;;;;;;;;;;;22.40;50.10;;;;;;476665;250;1141;-73
2022/09/12 00:55:03;;;;;;;;;;;22.40;50.10;;;;;;477079;250;1131;-73
2022/09/12 00:57:04;;;;;;;;;;;22.40;50.10;;;;;;476792;250;1306;-73
2022/09/12 00:59:06;;;;;;;;;;;22.40;50.20;;;;;;476637;250;1128;-73
2022/09/12 01:01:07;;;;;;;;;;;22.50;50.10;;;;;;476697;250;1136;-73
2022/09/12 01:03:08;;;;;;;;;;;22.50;50.00;;;;;;476671;250;1204;-73
2022/09/12 01:05:10;;;;;;;;;;;22.50;49.90;;;;;;476631;250;2167;-73
2022/09/12 01:07:11;;;;;;;;;;;22.50;49.90;;;;;;476922;250;1175;-73
2022/09/12 01:09:12;;;;;;;;;;;22.50;50.00;;;;;;476859;250;1152;-73
2022/09/12 01:11:14;;;;;;;;;;;22.50;49.90;;;;;;477007;250;1334;-73
2022/09/12 01:13:15;;;;;;;;;;;22.40;49.90;;;;;;476966;250;1287;-73
2022/09/12 01:15:16;;;;;;;;;;;22.40;49.90;;;;;;476635;250;1189;-73
2022/09/12 01:17:18;;;;;;;;;;;22.40;49.90;;;;;;476656;250;1272;-73
2022/09/12 01:19:19;;;;;;;;;;;22.40;49.90;;;;;;476631;250;1189;-73
2022/09/12 01:21:20;;;;;;;;;;;22.40;49.80;;;;;;476747;250;1226;-73
2022/09/12 01:23:22;;;;;;;;;;;22.40;49.90;;;;;;476667;250;1179;-73
2022/09/12 01:25:23;;;;;;;;;;;22.40;49.90;;;;;;476561;250;2195;-73
2022/09/12 01:27:25;;;;;;;;;;;22.40;49.70;;;;;;476664;250;1134;-73
2022/09/12 01:29:26;;;;;;;;;;;22.30;49.80;;;;;;476766;250;1414;-73
2022/09/12 01:31:27;;;;;;;;;;;22.30;49.90;;;;;;476709;250;1183;-73
2022/09/12 01:33:28;;;;;;;;;;;22.30;50.00;;;;;;476679;250;1186;-73
2022/09/12 01:35:30;;;;;;;;;;;22.30;50.10;;;;;;476800;250;1202;-73
2022/09/12 01:37:33;;;;;;;;;;;22.20;50.00;;;;;;476581;250;1255;-73
2022/09/12 01:39:32;;;;;;;;;;;22.20;50.00;;;;;;476464;250;1424;-73
2022/09/12 01:41:34;;;;;;;;;;;22.20;50.00;;;;;;476605;250;1221;-74
2022/09/12 01:43:35;;;;;;;;;;;22.30;50.00;;;;;;476973;250;1227;-73
2022/09/12 01:45:37;;;;;;;;;;;22.30;49.90;;;;;;476569;250;2191;-73
2022/09/12 01:47:38;;;;;;;;;;;22.30;49.90;;;;;;476819;250;1255;-73
2022/09/12 01:49:39;;;;;;;;;;;22.30;49.90;;;;;;476637;250;1273;-73
2022/09/12 01:51:40;;;;;;;;;;;22.30;49.80;;;;;;476625;250;1181;-73
2022/09/12 01:53:42;;;;;;;;;;;22.20;49.80;;;;;;476760;250;1173;-73
2022/09/12 01:55:43;;;;;;;;;;;22.20;49.80;;;;;;476503;250;1542;-73
2022/09/12 01:57:44;;;;;;;;;;;22.20;49.70;;;;;;476733;250;1177;-73
2022/09/12 01:59:46;;;;;;;;;;;22.20;49.80;;;;;;476760;250;1252;-73
2022/09/12 02:01:47;;;;;;;;;;;22.20;49.80;;;;;;476937;250;1227;-73
2022/09/12 02:03:48;;;;;;;;;;;22.30;49.90;;;;;;476945;250;1241;-73
2022/09/12 02:05:50;;;;;;;;;;;22.20;49.80;;;;;;476882;250;2152;-73
2022/09/12 02:07:51;;;;;;;;;;;22.30;49.70;;;;;;476792;250;1220;-73
2022/09/12 02:09:53;;;;;;;;;;;22.30;49.60;;;;;;476601;250;1225;-73
2022/09/12 02:11:54;;;;;;;;;;;22.30;49.70;;;;;;476725;250;1241;-73
2022/09/12 02:13:55;;;;;;;;;;;22.30;49.50;;;;;;476633;250;1241;-74
2022/09/12 02:15:57;;;;;;;;;;;22.30;49.50;;;;;;476946;250;1243;-73
2022/09/12 02:17:58;;;;;;;;;;;22.30;49.50;;;;;;476598;250;1224;-73
2022/09/12 02:19:59;;;;;;;;;;;22.30;49.40;;;;;;476706;250;1216;-73
2022/09/12 02:22:01;;;;;;;;;;;22.30;49.40;;;;;;476633;250;1305;-73
2022/09/12 02:24:02;;;;;;;;;;;22.30;49.40;;;;;;476796;250;1252;-73
2022/09/12 02:26:03;;;;;;;;;;;22.30;49.50;;;;;;476652;250;2172;-73
2022/09/12 02:28:05;;;;;;;;;;;22.20;49.50;;;;;;476913;250;1456;-73
2022/09/12 02:30:06;;;;;;;;;;;22.20;49.60;;;;;;476959;250;1237;-73
2022/09/12 02:32:07;;;;;;;;;;;22.20;49.50;;;;;;476709;250;1239;-73
2022/09/12 02:34:09;;;;;;;;;;;22.20;49.50;;;;;;476932;250;1113;-73
2022/09/12 02:36:11;;;;;;;;;;;22.30;49.40;;;;;;476804;250;1266;-73
2022/09/12 02:38:11;;;;;;;;;;;22.20;49.20;;;;;;476563;250;1375;-73
2022/09/12 02:40:13;;;;;;;;;;;22.30;49.30;;;;;;476755;250;1203;-73
2022/09/12 02:42:14;;;;;;;;;;;22.30;49.10;;;;;;476647;250;1233;-73
2022/09/12 02:44:15;;;;;;;;;;;22.30;49.00;;;;;;476710;250;1290;-73
2022/09/12 02:46:17;;;;;;;;;;;22.20;49.00;;;;;;476792;250;2195;-73
2022/09/12 02:48:18;;;;;;;;;;;22.10;49.20;;;;;;476683;250;1209;-73
2022/09/12 02:50:19;;;;;;;;;;;22.10;49.20;;;;;;476610;250;1210;-73
2022/09/12 02:52:21;;;;;;;;;;;22.10;49.30;;;;;;477037;250;1197;-73
2022/09/12 02:54:22;;;;;;;;;;;22.10;49.30;;;;;;476677;250;1273;-73
2022/09/12 02:56:23;;;;;;;;;;;22.10;49.30;;;;;;476632;250;1324;-73
2022/09/12 02:58:25;;;;;;;;;;;22.20;49.10;;;;;;476825;250;1310;-73
2022/09/12 03:00:26;;;;;;;;;;;22.10;49.20;;;;;;476641;250;1251;-73
2022/09/12 03:02:27;;;;;;;;;;;22.20;49.00;;;;;;476679;250;1251;-73
2022/09/12 03:04:29;;;;;;;;;;;22.20;48.90;;;;;;476743;250;1270;-74
2022/09/12 03:06:30;;;;;;;;;;;22.20;49.00;;;;;;476661;250;2164;-73
2022/09/12 03:08:31;;;;;;;;;;;22.20;48.90;;;;;;476612;250;1198;-73
2022/09/12 03:10:33;;;;;;;;;;;22.20;48.90;;;;;;476668;250;1204;-73
2022/09/12 03:12:34;;;;;;;;;;;22.20;48.80;;;;;;476948;250;1179;-73
2022/09/12 03:14:35;;;;;;;;;;;22.20;48.70;;;;;;476702;250;1263;-73
2022/09/12 03:16:37;;;;;;;;;;;22.20;48.70;;;;;;476965;250;1217;-73
2022/09/12 03:18:38;;;;;;;;;;;22.20;48.70;;;;;;476929;250;1180;-73
2022/09/12 03:20:39;;;;;;;;;;;22.20;48.70;;;;;;476684;250;1168;-73
2022/09/12 03:22:41;;;;;;;;;;;22.20;48.70;;;;;;476921;250;1253;-73
2022/09/12 03:24:42;;;;;;;;;;;22.10;48.70;;;;;;476641;250;1321;-74
2022/09/12 03:26:43;;;;;;;;;;;22.10;48.80;;;;;;476924;250;2203;-73
2022/09/12 03:28:45;;;;;;;;;;;22.10;48.90;;;;;;476841;250;1220;-73
2022/09/12 03:30:46;;;;;;;;;;;22.10;48.80;;;;;;476769;250;1209;-75
2022/09/12 03:32:47;;;;;;;;;;;22.00;48.80;;;;;;476714;250;1249;-73
2022/09/12 03:34:49;;;;;;;;;;;22.00;48.70;;;;;;476889;250;1247;-73
2022/09/12 03:36:50;;;;;;;;;;;21.90;48.80;;;;;;476681;250;1159;-73
2022/09/12 03:38:51;;;;;;;;;;;22.00;48.90;;;;;;476664;250;1118;-73
2022/09/12 03:40:53;;;;;;;;;;;22.00;48.90;;;;;;476638;250;1133;-73
2022/09/12 03:42:54;;;;;;;;;;;22.00;48.80;;;;;;476622;250;1233;-73
2022/09/12 03:44:55;;;;;;;;;;;22.00;48.90;;;;;;476751;250;1113;-73
2022/09/12 03:46:57;;;;;;;;;;;22.00;48.60;;;;;;477047;250;2156;-73
2022/09/12 03:48:58;;;;;;;;;;;22.00;48.70;;;;;;476691;250;1108;-73
2022/09/12 03:50:59;;;;;;;;;;;22.00;48.70;;;;;;476773;250;1045;-73
2022/09/12 03:53:01;;;;;;;;;;;21.90;48.80;;;;;;477066;250;1116;-73
2022/09/12 03:55:02;;;;;;;;;;;22.00;48.80;;;;;;476605;250;1266;-73
2022/09/12 03:57:03;;;;;;;;;;;22.00;48.70;;;;;;477096;250;1169;-73
2022/09/12 03:59:05;;;;;;;;;;;22.00;48.60;;;;;;476901;250;1239;-73
2022/09/12 04:01:06;;;;;;;;;;;22.10;48.60;;;;;;476731;250;1225;-73
2022/09/12 04:03:07;;;;;;;;;;;22.10;48.60;;;;;;476821;250;1242;-73
2022/09/12 04:05:09;;;;;;;;;;;22.10;48.50;;;;;;476735;250;1199;-73
2022/09/12 04:07:10;;;;;;;;;;;22.10;48.50;;;;;;476758;250;2153;-73
2022/09/12 04:09:11;;;;;;;;;;;22.10;48.50;;;;;;476550;250;1242;-73
2022/09/12 04:11:13;;;;;;;;;;;21.90;48.70;;;;;;476710;250;1300;-73
2022/09/12 04:13:14;;;;;;;;;;;21.80;48.90;;;;;;476542;250;1276;-73
2022/09/12 04:15:15;;;;;;;;;;;21.80;48.80;;;;;;476723;250;1261;-73
2022/09/12 04:17:17;;;;;;;;;;;21.90;48.90;;;;;;476935;250;1202;-73
2022/09/12 04:19:18;;;;;;;;;;;21.90;48.80;;;;;;476615;250;1232;-73
2022/09/12 04:21:20;;;;;;;;;;;22.00;48.60;;;;;;476833;250;1242;-73
2022/09/12 04:23:21;;;;;;;;;;;21.90;48.70;;;;;;476615;250;1445;-73
2022/09/12 04:25:22;;;;;;;;;;;21.90;48.50;;;;;;476747;250;1224;-73
2022/09/12 04:27:23;;;;;;;;;;;22.00;48.40;;;;;;476618;250;2165;-73
2022/09/12 04:29:25;;;;;;;;;;;22.00;48.40;;;;;;476635;250;1208;-73
2022/09/12 04:31:26;;;;;;;;;;;21.90;48.50;;;;;;476987;250;1195;-73
2022/09/12 04:33:27;;;;;;;;;;;21.80;48.70;;;;;;476825;250;1227;-73
2022/09/12 04:35:29;;;;;;;;;;;21.80;48.90;;;;;;476612;250;1265;-73
2022/09/12 04:37:30;;;;;;;;;;;21.80;48.80;;;;;;476681;250;1086;-73
2022/09/12 04:39:31;;;;;;;;;;;21.80;48.60;;;;;;476520;250;1095;-73
2022/09/12 04:41:32;;;;;;;;;;;21.80;48.80;;;;;;476629;250;1146;-73
2022/09/12 04:43:34;;;;;;;;;;;21.80;48.50;;;;;;476980;250;1096;-73
2022/09/12 04:45:35;;;;;;;;;;;21.90;48.60;;;;;;476834;250;1159;-73
2022/09/12 04:47:37;;;;;;;;;;;21.80;48.60;;;;;;477062;250;2160;-73
2022/09/12 04:49:38;;;;;;;;;;;21.80;48.50;;;;;;476761;250;1283;-73
2022/09/12 04:51:39;;;;;;;;;;;21.80;48.70;;;;;;477016;250;1158;-73
2022/09/12 04:53:40;;;;;;;;;;;21.80;48.70;;;;;;477033;250;1157;-73
2022/09/12 04:55:42;;;;;;;;;;;21.80;48.50;;;;;;476592;250;1263;-74
2022/09/12 04:57:43;;;;;;;;;;;21.80;48.70;;;;;;476570;250;1239;-73
2022/09/12 04:59:44;;;;;;;;;;;21.80;48.60;;;;;;476973;250;1110;-73
2022/09/12 05:01:46;;;;;;;;;;;21.80;48.70;;;;;;476969;250;1324;-73
2022/09/12 05:03:47;;;;;;;;;;;21.70;48.70;;;;;;476699;250;1193;-73
2022/09/12 05:05:49;;;;;;;;;;;21.70;48.80;;;;;;476596;250;1152;-73
2022/09/12 05:07:50;;;;;;;;;;;21.70;48.70;;;;;;476901;250;2199;-73
2022/09/12 05:09:51;;;;;;;;;;;21.70;48.60;;;;;;476584;250;1186;-73
2022/09/12 05:11:52;;;;;;;;;;;21.80;48.50;;;;;;476896;250;1167;-73
2022/09/12 05:13:54;;;;;;;;;;;21.70;48.60;;;;;;476619;250;1371;-73
2022/09/12 05:15:55;;;;;;;;;;;21.70;48.50;;;;;;476640;250;1149;-73
2022/09/12 05:17:57;;;;;;;;;;;21.70;48.60;;;;;;476587;250;1214;-73
2022/09/12 05:19:58;;;;;;;;;;;21.70;48.60;;;;;;476777;250;1142;-73
2022/09/12 05:21:59;;;;;;;;;;;21.70;48.60;;;;;;477021;250;1248;-73
2022/09/12 05:24:00;;;;;;;;;;;21.70;48.70;;;;;;476598;250;1162;-73
2022/09/12 05:26:02;;;;;;;;;;;21.70;48.60;;;;;;476655;250;1154;-73
2022/09/12 05:28:03;;;;;;;;;;;21.70;48.40;;;;;;476595;250;2180;-73
2022/09/12 05:30:05;;;;;;;;;;;21.70;48.50;;;;;;476643;250;1204;-73
2022/09/12 05:32:06;;;;;;;;;;;21.80;48.60;;;;;;476521;250;1149;-73
2022/09/12 05:34:08;;;;;;;;;;;21.70;48.50;;;;;;476548;250;1368;-73
2022/09/12 05:36:09;;;;;;;;;;;21.70;48.70;;;;;;476621;250;1415;-73
2022/09/12 05:38:10;;;;;;;;;;;21.70;48.70;;;;;;476678;250;1149;-73
2022/09/12 05:40:14;;;;;;;;;;;21.70;48.80;;;;;;476480;250;1172;-73
2022/09/12 05:42:13;;;;;;;;;;;21.70;48.80;;;;;;476190;250;1422;-73
2022/09/12 05:44:14;;;;;;;;;;;21.70;48.80;;;;;;476452;250;1268;-73
2022/09/12 05:46:15;;;;;;;;;;;21.80;48.70;;;;;;476291;250;1165;-73
2022/09/12 05:48:17;;;;;;;;;;;21.70;48.70;;;;;;476440;250;2215;-73
2022/09/12 05:50:18;;;;;;;;;;;21.80;48.70;;;;;;476171;250;1350;-73
2022/09/12 05:52:19;;;;;;;;;;;21.70;48.60;;;;;;476403;250;1226;-73
2022/09/12 05:54:21;;;;;;;;;;;21.80;48.70;;;;;;476362;250;1167;-73
2022/09/12 05:56:22;;;;;;;;;;;21.70;48.80;;;;;;476463;250;1145;-73
2022/09/12 05:58:24;;;;;;;;;;;21.90;48.80;;;;;;476593;250;1172;-73
2022/09/12 06:00:25;;;;;;;;;;;21.90;48.70;;;;;;476476;250;1191;-73
2022/09/12 06:02:26;;;;;;;;;;;21.80;48.80;;;;;;476471;250;1214;-73
2022/09/12 06:04:28;;;;;;;;;;;21.70;48.90;;;;;;476510;250;1177;-73
2022/09/12 06:06:29;;;;;;;;;;;21.80;48.80;;;;;;476564;250;1289;-73
2022/09/12 06:08:30;;;;;;;;;;;21.90;48.80;;;;;;476586;250;2204;-73
2022/09/12 06:10:34;;;;;;;;;;;21.90;48.80;;;;;;476455;250;1173;-73
2022/09/12 06:12:33;;;;;;;;;;;21.90;48.80;;;;;;476340;250;1353;-73
2022/09/12 06:14:35;;;;;;;;;;;21.90;48.80;;;;;;476605;250;1256;-73
2022/09/12 06:16:36;;;;;;;;;;;21.90;48.90;;;;;;476483;250;1191;-73
2022/09/12 06:18:38;;;;;;;;;;;21.90;49.00;;;;;;476239;250;1304;-73
2022/09/12 06:20:39;;;;;;;;;;;21.90;49.00;;;;;;476264;250;1164;-73
2022/09/12 06:22:41;;;;;;;;;;;21.90;49.10;;;;;;476257;250;1355;-73
2022/09/12 06:24:42;;;;;;;;;;;21.90;49.20;;;;;;476152;250;1320;-73
2022/09/12 06:26:43;;;;;;;;;;;22.00;49.10;;;;;;476267;250;1186;-73
2022/09/12 06:28:44;;;;;;;;;;;22.10;49.00;;;;;;476288;250;2199;-73
2022/09/12 06:30:46;;;;;;;;;;;22.10;49.00;;;;;;476290;250;1199;-73
2022/09/12 06:32:47;;;;;;;;;;;22.10;49.00;;;;;;476274;250;1098;-73
2022/09/12 06:34:48;;;;;;;;;;;22.00;49.10;;;;;;476273;250;1373;-73
2022/09/12 06:36:50;;;;;;;;;;;22.00;49.20;;;;;;476233;250;1240;-73
2022/09/12 06:38:51;;;;;;;;;;;21.90;49.40;;;;;;476247;250;1241;-73
2022/09/12 06:40:52;;;;;;;;;;;22.00;49.30;;;;;;476101;250;1167;-73
2022/09/12 06:42:54;;;;;;;;;;;22.00;49.30;;;;;;476194;250;1176;-73
2022/09/12 06:44:55;;;;;;;;;;;22.10;49.20;;;;;;476347;250;1334;-73
2022/09/12 06:46:57;;;;;;;;;;;22.10;49.10;;;;;;476325;250;1189;-73
2022/09/12 06:48:58;;;;;;;;;;;22.20;49.10;;;;;;476253;250;2208;-73
2022/09/12 06:50:59;;;;;;;;;;;22.20;49.00;;;;;;476242;250;1304;-73
2022/09/12 06:53:01;;;;;;;;;;;22.20;49.10;;;;;;476307;250;1200;-73
2022/09/12 06:55:02;;;;;;;;;;;22.30;49.10;;;;;;476347;250;1137;-73
2022/09/12 06:57:03;;;;;;;;;;;22.20;49.10;;;;;;476321;250;1199;-73
2022/09/12 06:59:05;;;;;;;;;;;22.20;49.10;;;;;;476361;250;1188;-73
2022/09/12 07:01:06;;;;;;;;;;;22.20;49.30;;;;;;476443;250;1202;-73
2022/09/12 07:03:07;;;;;;;;;;;22.20;49.40;;;;;;476445;250;1422;-73
2022/09/12 07:05:09;;;;;;;;;;;22.20;49.40;;;;;;476516;250;1097;-73
2022/09/12 07:07:10;;;;;;;;;;;22.20;49.50;;;;;;476298;250;2148;-73
2022/09/12 07:09:11;;;;;;;;;;;22.20;49.70;;;;;;476375;250;1240;-73
2022/09/12 07:11:13;;;;;;;;;;;22.20;49.60;;;;;;476196;250;1179;-73
2022/09/12 07:13:14;;;;;;;;;;;22.20;49.60;;;;;;476314;250;1126;-73
2022/09/12 07:15:16;;;;;;;;;;;22.30;49.60;;;;;;476442;250;1343;-73
2022/09/12 07:17:17;;;;;;;;;;;22.20;49.70;;;;;;476170;250;1560;-73
2022/09/12 07:19:18;;;;;;;;;;;22.20;49.70;;;;;;476332;250;1224;-73
2022/09/12 07:21:19;;;;;;;;;;;22.30;49.80;;;;;;476059;250;1175;-73
2022/09/12 07:23:21;;;;;;;;;;;22.30;49.80;;;;;;476298;250;1335;-73
2022/09/12 07:25:22;;;;;;;;;;;22.30;49.80;;;;;;476375;250;1264;-73
2022/09/12 07:27:23;;;;;;;;;;;22.30;49.90;;;;;;476370;250;2200;-73
2022/09/12 07:29:25;;;;;;;;;;;22.30;49.80;;;;;;476476;250;1156;-73
2022/09/12 07:31:26;;;;;;;;;;;22.40;49.90;;;;;;476382;250;1168;-73
2022/09/12 07:33:27;;;;;;;;;;;22.30;49.90;;;;;;476431;250;1175;-73
2022/09/12 07:35:29;;;;;;;;;;;22.30;50.10;;;;;;476412;250;1069;-73
2022/09/12 07:37:30;;;;;;;;;;;22.30;50.20;;;;;;476353;250;1158;-73
2022/09/12 07:39:32;;;;;;;;;;;22.30;50.30;;;;;;476445;250;1178;-73
2022/09/12 07:41:33;;;;;;;;;;;22.40;50.20;;;;;;476192;250;1121;-73
2022/09/12 07:43:34;;;;;;;;;;;22.30;50.20;;;;;;476215;250;1113;-73
2022/09/12 07:45:35;;;;;;;;;;;22.30;50.20;;;;;;476316;250;1132;-73
2022/09/12 07:47:37;;;;;;;;;;;22.40;50.30;;;;;;476289;250;2168;-73
2022/09/12 07:49:38;;;;;;;;;;;22.30;50.30;;;;;;476271;250;1264;-73
2022/09/12 07:51:40;;;;;;;;;;;22.30;50.50;;;;;;476332;250;1298;-73
2022/09/12 07:53:42;;;;;;;;;;;22.30;50.60;;;;;;476449;250;1294;-73
2022/09/12 07:55:42;;;;;;;;;;;22.30;50.50;;;;;;476282;250;1449;-73
2022/09/12 07:57:44;;;;;;;;;;;22.40;50.60;;;;;;476471;250;1207;-73
2022/09/12 07:59:45;;;;;;;;;;;22.30;50.60;;;;;;476433;250;1153;-73
2022/09/12 08:01:46;;;;;;;;;;;22.30;50.70;;;;;;476226;250;1170;-73
2022/09/12 08:03:48;;;;;;;;;;;22.30;50.80;;;;;;476375;250;1171;-73
2022/09/12 08:05:49;;;;;;;;;;;22.30;50.90;;;;;;476432;250;1196;-73
2022/09/12 08:07:50;;;;;;;;;;;22.30;50.90;;;;;;476391;250;2160;-73
2022/09/12 08:09:52;;;;;;;;;;;22.30;50.90;;;;;;476429;250;1209;-73
2022/09/12 08:11:53;;;;;;;;;;;22.40;50.70;;;;;;476452;250;1344;-73
2022/09/12 08:13:55;;;;;;;;;;;22.40;50.80;;;;;;476417;250;1055;-73
2022/09/12 08:16:01;;;;;;;;;;;22.40;50.00;;;;;;502775;234;1165;-73
2022/09/12 08:18:02;;;;;;;;;;;22.40;50.90;;;;;;491677;241;1080;-73
2022/09/12 08:20:03;;;;;;;;;;;22.40;51.10;;;;;;491390;240;1161;-73
2022/09/12 08:22:05;;;;;;;;;;;22.40;51.10;;;;;;491620;240;1216;-73
2022/09/12 08:24:06;;;;;;;;;;;22.40;51.10;;;;;;491576;240;1085;-73
2022/09/12 08:26:07;;;;;;;;;;;22.40;51.00;;;;;;491838;240;1217;-74
2022/09/12 08:28:09;;;;;;;;;;;22.40;51.10;;;;;;491667;240;1126;-74
2022/09/12 08:30:10;;;;;;;;;;;22.40;51.10;;;;;;491730;240;1502;-74
2022/09/12 08:32:12;;;;;;;;;;;22.40;51.00;;;;;;491698;240;1176;-74
2022/09/12 08:34:15;;;;;;;;;;;22.40;51.10;;;;;;491581;240;2151;-73
2022/09/12 08:36:14;;;;;;;;;;;22.50;51.10;;;;;;491522;240;1526;-73
2022/09/12 08:38:16;;;;;;;;;;;22.50;51.20;;;;;;491539;240;1262;-73
2022/09/12 08:40:17;;;;;;;;;;;22.50;51.20;;;;;;491453;240;1087;-73
2022/09/12 08:42:21;;;;;;;;;;;22.50;51.20;;;;;;491316;240;1073;-73
2022/09/12 08:44:20;;;;;;;;;;;22.60;51.20;;;;;;491377;240;1393;-73
2022/09/12 08:46:21;;;;;;;;;;;22.60;51.10;;;;;;491309;240;1099;-73
2022/09/12 08:48:23;;;;;;;;;;;22.60;51.00;;;;;;491368;240;1275;-73
2022/09/12 08:50:24;;;;;;;;;;;22.50;51.00;;;;;;491291;240;1212;-73
2022/09/12 08:52:25;;;;;;;;;;;22.50;51.00;;;;;;491345;240;1117;-73
2022/09/12 08:54:26;;;;;;;;;;;22.50;51.10;;;;;;491345;240;2172;-73
2022/09/12 08:56:28;;;;;;;;;;;22.50;51.00;;;;;;491307;240;1165;-73
2022/09/12 08:58:29;;;;;;;;;;;22.50;51.20;;;;;;491434;240;1079;-73
2022/09/12 09:00:31;;;;;;;;;;;22.50;51.10;;;;;;491446;240;1163;-73
2022/09/12 09:02:33;;;;;;;;;;;22.50;51.00;;;;;;491445;240;1088;-73
2022/09/12 09:04:34;;;;;;;;;;;22.50;51.00;;;;;;491168;240;1347;-73
2022/09/12 09:06:35;;;;;;;;;;;22.50;51.10;;;;;;491422;240;1183;-73
2022/09/12 09:08:36;;;;;;;;;;;22.50;51.20;;;;;;491549;240;1200;-73
2022/09/12 09:10:38;;;;;;;;;;;22.50;51.10;;;;;;491392;240;1040;-73
2022/09/12 09:12:39;;;;;;;;;;;22.60;51.00;;;;;;491474;240;1609;-73
2022/09/12 09:14:49;;;;;;;;;;;22.60;50.80;;;;;;491424;240;2160;-73
2022/09/12 09:16:51;;;;;;;;;;;22.60;50.80;;;;;;491445;240;1066;-73
2022/09/12 09:18:52;;;;;;;;;;;22.60;50.80;;;;;;491431;240;1065;-73
2022/09/12 09:20:54;;;;;;;;;;;22.60;50.90;;;;;;491452;240;1137;-73
2022/09/12 09:22:55;;;;;;;;;;;22.50;51.00;;;;;;491463;240;1210;-73
2022/09/12 09:24:56;;;;;;;;;;;22.50;51.10;;;;;;491444;240;1185;-73
2022/09/12 09:26:57;;;;;;;;;;;22.50;51.20;;;;;;491321;240;1158;-73
2022/09/12 09:28:59;;;;;;;;;;;22.60;51.10;;;;;;491294;240;1205;-73
2022/09/12 09:31:00;;;;;;;;;;;22.60;51.20;;;;;;491175;240;1227;-73
2022/09/12 09:33:01;;;;;;;;;;;22.50;51.20;;;;;;491254;240;1178;-73
2022/09/12 09:35:03;;;;;;;;;;;22.60;51.20;;;;;;491292;240;2211;-73
2022/09/12 09:37:04;;;;;;;;;;;22.60;51.30;;;;;;491137;240;1242;-73
2022/09/12 09:39:05;;;;;;;;;;;22.50;51.10;;;;;;491315;240;1136;-73
2022/09/12 09:41:07;;;;;;;;;;;22.50;51.40;;;;;;491119;240;1287;-73
2022/09/12 09:43:08;;;;;;;;;;;22.50;51.40;;;;;;491347;240;1116;-73
2022/09/12 09:45:09;;;;;;;;;;;22.50;51.50;;;;;;491324;240;1252;-73
2022/09/12 09:47:11;;;;;;;;;;;22.40;51.50;;;;;;491153;240;1201;-73
2022/09/12 09:49:12;;;;;;;;;;;22.40;51.80;;;;;;491194;240;1093;-73
2022/09/12 09:51:13;;;;;;;;;;;22.40;51.70;;;;;;491292;240;1173;-73
2022/09/12 09:53:15;;;;;;;;;;;22.40;51.80;;;;;;491278;240;1175;-73
2022/09/12 09:55:17;;;;;;;;;;;22.30;51.80;;;;;;491225;240;2195;-73
2022/09/12 09:57:18;;;;;;;;;;;22.40;52.00;;;;;;490864;240;1140;-73
2022/09/12 09:59:19;;;;;;;;;;;22.40;51.70;;;;;;491255;240;1090;-73
2022/09/12 10:01:21;;;;;;;;;;;22.50;51.50;;;;;;491271;240;1145;-73
2022/09/12 10:03:22;;;;;;;;;;;22.50;51.50;;;;;;491233;240;1220;-73
2022/09/12 10:05:23;;;;;;;;;;;22.50;51.40;;;;;;491279;240;1085;-73
2022/09/12 10:07:25;;;;;;;;;;;22.50;51.50;;;;;;490899;240;1102;-73
2022/09/12 10:09:26;;;;;;;;;;;22.50;51.30;;;;;;490816;240;1149;-73
2022/09/12 10:11:28;;;;;;;;;;;22.50;51.40;;;;;;491339;240;1131;-73
2022/09/12 10:13:29;;;;;;;;;;;22.50;51.50;;;;;;491299;240;1308;-73
2022/09/12 10:15:30;;;;;;;;;;;22.50;51.40;;;;;;491234;240;2184;-73
2022/09/12 10:17:32;;;;;;;;;;;22.60;51.30;;;;;;491222;240;1156;-73
2022/09/12 10:19:33;;;;;;;;;;;22.60;51.20;;;;;;491211;240;1312;-73
2022/09/12 10:21:35;;;;;;;;;;;22.60;51.20;;;;;;491274;240;1244;-73
2022/09/12 10:23:36;;;;;;;;;;;22.60;51.20;;;;;;491294;240;1068;-73
2022/09/12 10:25:37;;;;;;;;;;;22.60;51.40;;;;;;491001;240;1121;-73
2022/09/12 10:27:39;;;;;;;;;;;22.60;51.50;;;;;;491351;240;1333;-73
2022/09/12 10:29:42;;;;;;;;;;;22.50;51.40;;;;;;491498;240;1292;-73
2022/09/12 10:31:41;;;;;;;;;;;22.60;51.20;;;;;;491257;240;1243;-74
2022/09/12 10:33:43;;;;;;;;;;;22.60;51.20;;;;;;491488;240;1137;-73
2022/09/12 10:35:44;;;;;;;;;;;22.60;51.30;;;;;;491600;240;2152;-73
2022/09/12 10:37:45;;;;;;;;;;;22.60;51.30;;;;;;491664;240;1312;-73
2022/09/12 10:39:47;;;;;;;;;;;22.60;51.30;;;;;;491488;240;1172;-73
2022/09/12 10:41:48;;;;;;;;;;;22.60;51.30;;;;;;491526;240;1164;-73
2022/09/12 10:43:49;;;;;;;;;;;22.60;51.30;;;;;;491535;240;1153;-73
2022/09/12 10:45:51;;;;;;;;;;;22.50;51.50;;;;;;491462;240;1235;-73
2022/09/12 10:47:52;;;;;;;;;;;22.50;51.50;;;;;;491625;240;1156;-73
2022/09/12 10:49:54;;;;;;;;;;;22.50;51.70;;;;;;491137;240;1162;-73
2022/09/12 10:51:55;;;;;;;;;;;22.50;51.30;;;;;;491217;240;1112;-74
2022/09/12 10:53:56;;;;;;;;;;;22.60;51.20;;;;;;491261;240;1190;-73
2022/09/12 10:55:58;;;;;;;;;;;22.70;51.20;;;;;;491133;240;2148;-73
2022/09/12 10:57:59;;;;;;;;;;;22.70;51.10;;;;;;491191;240;1200;-73
2022/09/12 11:00:00;;;;;;;;;;;22.70;51.10;;;;;;491221;240;1205;-73
2022/09/12 11:02:02;;;;;;;;;;;22.80;51.10;;;;;;491169;240;1160;-73
2022/09/12 11:04:03;;;;;;;;;;;22.70;51.10;;;;;;491131;240;1189;-73
2022/09/12 11:06:04;;;;;;;;;;;22.70;51.20;;;;;;491166;240;1099;-73
2022/09/12 11:08:06;;;;;;;;;;;22.70;51.20;;;;;;491176;240;1148;-73
2022/09/12 11:10:07;;;;;;;;;;;22.70;51.30;;;;;;491070;240;1179;-73
2022/09/12 11:12:08;;;;;;;;;;;22.70;51.30;;;;;;491297;240;1059;-73
2022/09/12 11:14:09;;;;;;;;;;;22.70;51.20;;;;;;491175;240;1216;-73
2022/09/12 11:16:11;;;;;;;;;;;22.70;51.10;;;;;;491254;240;2215;-73
2022/09/12 11:18:12;;;;;;;;;;;22.80;50.80;;;;;;491300;240;1161;-73
2022/09/12 11:20:13;;;;;;;;;;;22.80;50.60;;;;;;491247;240;1215;-73
2022/09/12 11:22:15;;;;;;;;;;;22.80;50.50;;;;;;491218;240;1213;-73
2022/09/12 11:24:16;;;;;;;;;;;22.80;50.60;;;;;;491281;240;1094;-73
2022/09/12 11:26:18;;;;;;;;;;;22.80;50.50;;;;;;491325;240;1101;-73
2022/09/12 11:28:19;;;;;;;;;;;22.80;50.70;;;;;;491238;240;1154;-73
2022/09/12 11:30:20;;;;;;;;;;;22.80;50.90;;;;;;491277;240;1208;-73
2022/09/12 11:32:22;;;;;;;;;;;22.80;50.70;;;;;;491241;240;1104;-73
2022/09/12 11:34:23;;;;;;;;;;;22.80;50.60;;;;;;491317;240;1154;-73
2022/09/12 11:36:24;;;;;;;;;;;22.90;50.70;;;;;;490878;240;2181;-73
2022/09/12 11:38:26;;;;;;;;;;;22.90;50.60;;;;;;491312;240;1147;-73
2022/09/12 11:40:27;;;;;;;;;;;22.90;50.30;;;;;;491310;240;1232;-73
2022/09/12 11:42:28;;;;;;;;;;;22.90;50.40;;;;;;491260;240;1101;-73
2022/09/12 11:44:30;;;;;;;;;;;22.90;50.40;;;;;;491278;240;1144;-73
2022/09/12 11:46:31;;;;;;;;;;;22.90;50.60;;;;;;491291;240;1131;-73
2022/09/12 11:48:32;;;;;;;;;;;22.80;50.60;;;;;;491293;240;1075;-74
2022/09/12 11:50:34;;;;;;;;;;;22.80;50.40;;;;;;491230;240;1094;-73
2022/09/12 11:52:35;;;;;;;;;;;22.80;50.40;;;;;;491383;240;1230;-73
2022/09/12 11:54:37;;;;;;;;;;;22.80;50.50;;;;;;491273;240;1122;-73
2022/09/12 11:56:38;;;;;;;;;;;22.80;50.30;;;;;;491271;240;2191;-73